Lantana, FL

2:08 PM EST on March 02, 2015 (GMT -0500)
Island Estates | Change Station
CLOSE
Current Station
Personal Weather Station
Location: Lantana, FL
Elevation: 45 ft
Nearby Weather Stations

Elev 45 ft 26.57 °N, 80.08 °W | Updated 3 minutes ago

Partly Cloudy
Partly Cloudy
77.4 °F
Feels Like 79 °F
N
6.0
Wind Variable Wind from East
Gusts 9.0 mph

Today
High -- | Low -- °F
--% Chance of Precip.
Yesterday
High -- | Low -- °F
Precip. -- in
6:43 AM 6:22 PM
Waxing Gibbous, 92% visible
Pressure 30.20 in
Visibility 10.0 miles
Clouds Scattered Clouds 2300 ft
Heat Index 79 °F
Dew Point 70 °F
Humidity 77%
Rainfall 0.02 in
Snow Depth Not available.
UV 8 out of 12
Pollen 10.60 out of 12
Air Quality Not available.
Flu Activity Not available.
METAR KPBI 021853Z 09011KT 10SM SCT023 27/19 A3020 RMK AO2 SLP227 T02670194 $

More Conditions Fewer Conditions

Pressure 30.20 in
Visibility 10.0 miles
Clouds Scattered Clouds 2300 ft
Heat Index 79 °F
Dew Point 70 °F
Humidity 77%
Rainfall 0.02 in
Snow Depth Not available.
UV 8 out of 12
Pollen 10.60 out of 12
Air Quality Not available.
Flu Activity Not available.
METAR KPBI 021853Z 09011KT 10SM SCT023 27/19 A3020 RMK AO2 SLP227 T02670194 $

More Conditions Fewer Conditions

10-Day Weather Forecast

Almanac

Astronomy

Mar. 02, 2015 Rise Set
Actual Time
Civil Twilight
Nautical Twilight
Astronomical Twilight
Moon
Length of Visible Light
Length of Day
Tomorrow will be .
, % of the Moon is Illuminated

Today's Extremes

State Highs State Lows

Community

WunderPhotos

Upload Photos

1,801,913 photos uploaded!

WunderBlogs® & News

Nearby

Air Quality

  Air Quality AQ Index Pollutant
Not available.

Snow Depth

Station Depth Elevation

Earthquake Activity

City Distance Mag. Time & Date
Minimum magnitude displayed is 2.5.

Coastal Water Temperatures

Place Temperature

Nearby Weather Stations